Time;durP1;ratioP1;P1;durP2;ratioP2;P2;SDS_P1;SDS_P2;PMS_P1;PMS_P2;Temp;Humidity;BMP_temperature;BMP_pressure;BME280_temperature;BME280_humidity;BME280_pressure;Samples;Min_cycle;Max_cycle;Signal;HPM_P1;HPM_P2
2023/01/24 00:01:08;;;;;;;52.73;25.97;;;0.10;99.90;;;;;;5073230;28;20263;-57
2023/01/24 00:03:34;;;;;;;52.30;25.70;;;;;;;;;;5073223;28;20229;-57
2023/01/24 00:06:00;;;;;;;48.90;24.73;;;0.10;99.90;;;;;;5072975;28;20180;-57
2023/01/24 00:08:25;;;;;;;48.10;24.63;;;0.10;99.90;;;;;;5073911;28;20175;-57
2023/01/24 00:11:02;;;;;;;50.03;26.07;;;0.10;99.90;;;;;;5084128;28;20635;-57
2023/01/24 00:13:28;;;;;;;52.93;25.70;;;-0.10;99.90;;;;;;5072908;28;20181;-57
2023/01/24 00:16:05;;;;;;;47.07;23.97;;;-0.10;99.90;;;;;;5072963;28;20173;-57
2023/01/24 00:18:32;;;;;;;51.00;25.13;;;0.50;99.90;;;;;;5072992;28;20207;-57
2023/01/24 00:21:12;;;;;;;49.60;24.10;;;-0.20;99.90;;;;;;5072719;28;20718;-57
2023/01/24 00:23:39;;;;;;;56.70;25.93;;;0.80;99.90;;;;;;5072847;28;20217;-57
2023/01/24 00:26:05;;;;;;;47.70;25.13;;;-0.30;99.90;;;;;;5072720;28;20179;-57
2023/01/24 00:28:31;;;;;;;53.37;23.97;;;-0.30;99.90;;;;;;5072694;28;20190;-57
2023/01/24 00:30:56;;;;;;;48.93;24.67;;;-0.40;99.90;;;;;;5072676;28;20259;-57
2023/01/24 00:33:22;;;;;;;59.97;24.83;;;-0.30;99.90;;;;;;5084961;28;20186;-57
2023/01/24 00:35:50;;;;;;;45.07;23.63;;;-0.40;99.90;;;;;;5087874;28;20179;-57
2023/01/24 00:38:16;;;;;;;48.37;22.43;;;-0.30;99.90;;;;;;5090506;28;21927;-57
2023/01/24 00:40:42;;;;;;;54.20;24.67;;;-0.50;99.90;;;;;;5072402;28;20215;-57
2023/01/24 00:43:07;;;;;;;45.03;23.60;;;-0.40;99.90;;;;;;5070756;28;20643;-57
2023/01/24 00:45:36;;;;;;;51.30;24.73;;;-0.40;99.90;;;;;;5071195;28;20682;-57
2023/01/24 00:48:03;;;;;;;50.27;26.00;;;-0.60;99.90;;;;;;5055702;28;20646;-57
2023/01/24 00:50:28;;;;;;;50.33;25.63;;;-0.40;99.90;;;;;;5071481;28;20205;-57
2023/01/24 00:52:54;;;;;;;50.97;25.63;;;-0.40;99.90;;;;;;5071492;28;20229;-57
2023/01/24 00:55:20;;;;;;;50.77;24.93;;;-0.20;99.90;;;;;;5060175;28;20207;-57
2023/01/24 00:57:45;;;;;;;50.23;25.97;;;0.00;99.90;;;;;;5061489;28;20573;-57
2023/01/24 01:00:12;;;;;;;55.53;26.60;;;-0.30;99.90;;;;;;5071119;28;20194;-57
2023/01/24 01:02:37;;;;;;;52.30;26.23;;;-0.50;99.90;;;;;;5084639;28;20630;-57
2023/01/24 01:05:04;;;;;;;53.97;25.90;;;-0.20;99.90;;;;;;5079970;28;20265;-57
2023/01/24 01:07:29;;;;;;;49.90;24.77;;;-0.40;99.90;;;;;;5086613;28;20200;-57
2023/01/24 01:09:55;;;;;;;46.63;25.43;;;;;;;;;;5072522;28;20626;-57
2023/01/24 01:12:21;;;;;;;58.87;25.40;;;-0.40;99.90;;;;;;5080869;28;20692;-57
2023/01/24 01:14:47;;;;;;;51.63;24.80;;;-0.20;99.90;;;;;;5074678;28;20172;-57
2023/01/24 01:17:12;;;;;;;49.80;25.00;;;-0.10;99.90;;;;;;5071694;28;20190;-57
2023/01/24 01:19:38;;;;;;;54.97;26.13;;;;;;;;;;5070867;28;20182;-57
2023/01/24 01:22:04;;;;;;;49.47;25.00;;;-0.70;99.90;;;;;;5071595;28;20173;-57
2023/01/24 01:24:30;;;;;;;50.53;25.60;;;-0.40;99.90;;;;;;5071862;28;20233;-57
2023/01/24 01:26:55;;;;;;;46.53;22.93;;;-0.80;99.90;;;;;;5071561;28;20623;-56
2023/01/24 01:29:21;;;;;;;50.17;24.17;;;-0.50;99.90;;;;;;5071479;28;20249;-57
2023/01/24 01:31:46;;;;;;;47.40;23.00;;;-0.60;99.90;;;;;;5071428;28;20199;-56
2023/01/24 01:34:12;;;;;;;52.87;23.90;;;-0.70;99.90;;;;;;5071503;28;20330;-55
2023/01/24 01:36:38;;;;;;;48.57;22.77;;;-1.10;99.90;;;;;;5071453;28;20181;-55
2023/01/24 01:39:03;;;;;;;44.10;21.80;;;-0.80;99.90;;;;;;5071238;28;20711;-55
2023/01/24 01:41:29;;;;;;;44.00;21.40;;;-0.80;99.90;;;;;;5071360;28;20200;-55
2023/01/24 01:46:45;;;;;;;44.03;22.23;;;-0.90;99.90;;;;;;5069706;28;20534;-56
2023/01/24 01:49:24;;;;;;;46.33;22.20;;;-1.30;99.90;;;;;;5070424;28;20178;-55
2023/01/24 01:51:55;;;;;;;45.83;22.67;;;-0.80;99.90;;;;;;5069202;28;20212;-55
2023/01/24 01:54:31;;;;;;;44.97;21.67;;;-0.90;99.90;;;;;;5069799;28;20193;-56
2023/01/24 01:57:15;;;;;;;49.10;24.03;;;-1.00;99.90;;;;;;5070145;28;20210;-56
2023/01/24 01:59:58;;;;;;;52.50;24.93;;;-1.00;99.90;;;;;;5069808;28;20192;-56
2023/01/24 02:02:23;;;;;;;51.30;23.67;;;-0.80;99.90;;;;;;5072244;28;20183;-56
2023/01/24 02:04:59;;;;;;;46.60;22.97;;;-0.70;99.90;;;;;;5090990;28;20175;-56
2023/01/24 02:07:33;;;;;;;48.23;23.03;;;-1.40;99.90;;;;;;5089875;28;20248;-55
2023/01/24 02:10:00;;;;;;;45.90;22.23;;;-0.90;99.90;;;;;;5062471;28;20261;-56
2023/01/24 02:12:40;;;;;;;52.93;22.77;;;-0.90;99.90;;;;;;5070596;28;20233;-56
2023/01/24 02:18:03;;;;;;;48.90;23.83;;;-0.90;99.90;;;;;;5078352;28;20245;-56
2023/01/24 02:20:45;;;;;;;48.20;24.27;;;-1.00;99.90;;;;;;5075244;28;20255;-55
2023/01/24 02:23:19;;;;;;;52.47;26.50;;;-0.80;99.90;;;;;;5070692;28;20255;-56
2023/01/24 02:26:12;;;;;;;53.43;26.53;;;-0.80;99.90;;;;;;5070603;28;20178;-56
2023/01/24 02:28:42;;;;;;;56.53;26.70;;;-0.70;99.90;;;;;;5052496;28;20188;-57
2023/01/24 02:31:07;;;;;;;54.87;26.63;;;-0.80;99.90;;;;;;5070466;28;20197;-57
2023/01/24 02:33:33;;;;;;;57.63;28.43;;;-0.70;99.90;;;;;;5070638;28;20243;-57
2023/01/24 02:36:31;;;;;;;55.13;27.57;;;-0.70;99.90;;;;;;5070378;28;20201;-57
2023/01/24 02:39:01;;;;;;;55.83;28.33;;;-0.90;99.90;;;;;;5070602;28;20255;-56
2023/01/24 02:41:36;;;;;;;51.67;26.90;;;-0.80;99.90;;;;;;5069993;28;20221;-56
2023/01/24 02:44:08;;;;;;;50.30;27.23;;;-0.80;99.90;;;;;;5067190;28;20202;-55
2023/01/24 02:46:37;;;;;;;57.80;28.83;;;-0.80;99.90;;;;;;5068373;28;20222;-55
2023/01/24 02:49:07;;;;;;;64.00;29.77;;;-0.80;99.90;;;;;;5065550;28;20565;-56
2023/01/24 02:54:17;;;;;;;52.33;24.03;;;-0.90;99.90;;;;;;5070524;28;20275;-56
2023/01/24 02:59:27;;;;;;;52.70;24.57;;;;;;;;;;5090956;28;20267;-55
2023/01/24 03:01:53;;;;;;;65.00;26.63;;;-1.00;99.90;;;;;;5088456;28;20268;-56
2023/01/24 03:04:18;;;;;;;52.70;26.13;;;-1.10;99.90;;;;;;5072334;28;20264;-56
2023/01/24 03:06:44;;;;;;;52.93;25.33;;;;;;;;;;5070075;28;20180;-56
2023/01/24 03:09:19;;;;;;;48.97;23.73;;;-1.00;99.90;;;;;;5079740;28;20172;-56
2023/01/24 03:11:49;;;;;;;48.13;23.53;;;-1.20;99.90;;;;;;5075677;28;20251;-56
2023/01/24 03:36:19;;;;;;;53.17;26.60;;;-1.20;99.90;;;;;;5050177;28;20247;-56
2023/01/24 03:41:30;;;;;;;53.57;26.80;;;-1.10;99.90;;;;;;5070792;28;20597;-57
2023/01/24 03:43:56;;;;;;;56.60;26.03;;;-1.00;99.90;;;;;;5073649;28;20218;-56
2023/01/24 03:46:22;;;;;;;55.17;26.40;;;;;;;;;;5072456;28;20742;-56
2023/01/24 03:48:47;;;;;;;51.43;26.00;;;-1.50;99.90;;;;;;5055020;28;20184;-56
2023/01/24 03:53:57;;;;;;;48.67;26.40;;;-1.10;99.90;;;;;;5071359;28;20759;-57
2023/01/24 03:56:23;;;;;;;51.97;27.43;;;-1.30;99.90;;;;;;5058501;28;20248;-55
2023/01/24 03:58:48;;;;;;;61.80;30.27;;;-0.90;99.90;;;;;;5073122;28;20303;-56
2023/01/24 04:01:15;;;;;;;60.67;29.23;;;;;;;;;;5072868;28;20199;-55
2023/01/24 04:03:40;;;;;;;66.13;30.37;;;-1.30;99.90;;;;;;5073212;28;20245;-55
2023/01/24 04:06:06;;;;;;;56.70;27.13;;;-1.30;99.90;;;;;;5082983;28;20654;-55
2023/01/24 04:08:31;;;;;;;55.07;27.77;;;-1.30;99.90;;;;;;5092980;28;20207;-55
2023/01/24 04:10:57;;;;;;;56.37;27.17;;;-1.50;99.90;;;;;;5075049;28;20172;-55
2023/01/24 04:13:23;;;;;;;56.60;25.67;;;-1.30;99.90;;;;;;5072890;28;20185;-56
2023/01/24 04:15:49;;;;;;;52.93;25.67;;;-1.30;99.90;;;;;;5072831;28;20566;-56
2023/01/24 04:18:15;;;;;;;52.57;24.63;;;-1.50;99.90;;;;;;5072796;28;20269;-55
2023/01/24 04:20:40;;;;;;;48.93;25.20;;;-1.40;99.90;;;;;;5072563;28;20216;-55
2023/01/24 04:23:07;;;;;;;50.90;23.97;;;-1.50;99.90;;;;;;5072593;28;20255;-56
2023/01/24 04:25:33;;;;;;;57.40;28.23;;;-1.40;99.90;;;;;;5072776;28;20174;-56
2023/01/24 04:28:00;;;;;;;57.00;27.33;;;-1.40;99.90;;;;;;5071398;28;20670;-55
2023/01/24 04:30:25;;;;;;;50.70;26.37;;;-1.10;99.90;;;;;;5080911;28;20183;-55
2023/01/24 04:32:51;;;;;;;49.80;25.90;;;-1.50;99.90;;;;;;5092100;28;20220;-55
2023/01/24 04:35:20;;;;;;;59.57;26.47;;;-1.40;99.90;;;;;;5058182;28;20214;-55
2023/01/24 04:37:45;;;;;;;61.47;28.80;;;-1.30;99.90;;;;;;5081709;28;20185;-55
2023/01/24 04:40:13;;;;;;;60.53;27.07;;;-1.80;99.90;;;;;;5091975;28;20198;-56
2023/01/24 04:42:39;;;;;;;53.73;27.23;;;-1.50;99.90;;;;;;5086572;28;20537;-56
2023/01/24 04:45:05;;;;;;;57.80;28.37;;;-1.30;99.90;;;;;;5072267;28;20260;-56
2023/01/24 04:47:31;;;;;;;60.77;29.40;;;;;;;;;;5064500;28;20212;-55
2023/01/24 04:49:57;;;;;;;66.23;28.00;;;;;;;;;;5072407;28;20172;-56
2023/01/24 04:52:22;;;;;;;57.30;27.73;;;-1.80;99.90;;;;;;5071818;28;20223;-56
2023/01/24 04:54:48;;;;;;;55.30;29.10;;;-1.70;99.90;;;;;;5071435;28;20181;-55
2023/01/24 04:57:14;;;;;;;60.17;29.47;;;-1.50;99.90;;;;;;5084761;28;20190;-56
2023/01/24 04:59:39;;;;;;;55.73;29.20;;;-1.30;99.90;;;;;;5080988;28;20563;-56
2023/01/24 05:02:05;;;;;;;57.20;28.90;;;-1.30;99.90;;;;;;5080939;28;20546;-55
2023/01/24 05:04:31;;;;;;;58.03;28.20;;;-1.40;99.90;;;;;;5083755;28;20547;-55
2023/01/24 05:06:56;;;;;;;61.53;28.70;;;-1.40;99.90;;;;;;5071798;28;20187;-56
2023/01/24 05:09:22;;;;;;;61.70;29.03;;;-1.60;99.90;;;;;;5071984;28;20638;-56
2023/01/24 05:11:48;;;;;;;60.67;28.27;;;;;;;;;;5072448;28;20711;-56
2023/01/24 05:14:13;;;;;;;56.13;28.00;;;-1.60;99.90;;;;;;5075373;28;20177;-56
2023/01/24 05:16:39;;;;;;;52.17;26.63;;;-1.50;99.90;;;;;;5079536;28;20269;-56
2023/01/24 05:19:05;;;;;;;55.77;27.50;;;-1.40;99.90;;;;;;5083355;28;20643;-56
2023/01/24 05:21:31;;;;;;;58.60;27.90;;;-1.60;99.90;;;;;;5071429;28;20227;-56
2023/01/24 05:23:57;;;;;;;53.07;25.87;;;-1.20;99.90;;;;;;5071660;28;20180;-56
2023/01/24 05:26:25;;;;;;;56.60;27.57;;;-1.50;99.90;;;;;;5071825;28;20200;-56
2023/01/24 05:28:51;;;;;;;56.07;28.23;;;-1.40;99.90;;;;;;5071338;28;20277;-56
2023/01/24 05:31:17;;;;;;;57.03;27.97;;;-1.50;99.90;;;;;;5073996;28;20234;-55
2023/01/24 05:33:43;;;;;;;58.80;27.13;;;-1.40;99.90;;;;;;5090089;28;20597;-54
2023/01/24 05:36:15;;;;;;;51.90;26.00;;;-1.70;99.90;;;;;;5070987;28;20240;-56
2023/01/24 05:38:42;;;;;;;54.37;25.83;;;;;;;;;;5082579;28;20183;-57
2023/01/24 05:41:10;;;;;;;57.13;26.40;;;-1.60;99.90;;;;;;5073586;28;20179;-57
2023/01/24 05:43:37;;;;;;;58.57;26.33;;;-1.90;99.90;;;;;;5080718;28;20181;-57
2023/01/24 05:46:05;;;;;;;52.93;25.80;;;-1.90;99.90;;;;;;5071034;28;20274;-57
2023/01/24 05:48:31;;;;;;;47.93;24.67;;;-1.70;99.90;;;;;;5079104;28;20184;-57
2023/01/24 05:51:03;;;;;;;48.00;24.60;;;-1.90;99.90;;;;;;5077404;28;20183;-57
2023/01/24 05:53:31;;;;;;;55.30;25.20;;;-1.90;99.90;;;;;;5074564;28;20177;-57
2023/01/24 05:55:59;;;;;;;54.40;25.70;;;-1.90;99.90;;;;;;5069137;28;20172;-57
2023/01/24 05:58:26;;;;;;;53.23;25.63;;;-1.90;99.90;;;;;;5072953;28;20168;-57
2023/01/24 06:00:52;;;;;;;53.57;24.60;;;-1.80;99.90;;;;;;5081571;28;20180;-57
2023/01/24 06:03:18;;;;;;;58.03;26.30;;;-2.00;99.90;;;;;;5068579;28;20278;-57
2023/01/24 06:05:52;;;;;;;52.83;25.80;;;-2.00;99.90;;;;;;5073878;28;20203;-57
2023/01/24 06:08:18;;;;;;;52.70;25.93;;;-1.90;99.90;;;;;;5065785;28;20671;-57
2023/01/24 06:10:43;;;;;;;61.57;27.30;;;-1.90;99.90;;;;;;5069520;28;20177;-57
2023/01/24 06:13:10;;;;;;;58.80;26.33;;;;;;;;;;5076609;28;20581;-57
2023/01/24 06:15:36;;;;;;;50.23;25.03;;;-1.70;99.90;;;;;;5070629;28;20186;-57
2023/01/24 06:18:02;;;;;;;56.73;26.30;;;-2.00;99.90;;;;;;5077969;28;20187;-57
2023/01/24 06:20:28;;;;;;;57.50;26.53;;;-1.90;99.90;;;;;;5090765;28;20211;-57
2023/01/24 06:22:58;;;;;;;54.63;27.00;;;-1.90;99.90;;;;;;5090752;28;20248;-57
2023/01/24 06:25:25;;;;;;;56.07;27.10;;;-1.80;99.90;;;;;;5090883;28;20176;-57
2023/01/24 06:27:52;;;;;;;54.67;27.80;;;-1.80;99.90;;;;;;5069128;28;20177;-57
2023/01/24 06:30:19;;;;;;;53.73;25.90;;;-1.80;99.90;;;;;;5085801;28;20209;-57
2023/01/24 06:33:06;;;;;;;52.27;25.60;;;-1.70;99.90;;;;;;5078513;28;20225;-57
2023/01/24 06:35:56;;;;;;;60.47;26.13;;;-1.70;99.90;;;;;;5072679;28;20179;-57
2023/01/24 06:38:23;;;;;;;56.90;26.50;;;-1.80;99.90;;;;;;5083910;28;20168;-57
2023/01/24 06:40:55;;;;;;;56.43;26.37;;;-1.80;99.90;;;;;;5076322;28;20175;-57
2023/01/24 06:43:21;;;;;;;49.73;26.23;;;-2.20;99.90;;;;;;5074178;28;20321;-54
2023/01/24 06:45:47;;;;;;;50.33;25.70;;;-2.90;99.90;;;;;;5070075;28;20184;-56
2023/01/24 06:48:13;;;;;;;50.03;24.87;;;-1.90;99.90;;;;;;5070517;28;20219;-56
2023/01/24 06:50:38;;;;;;;47.97;23.70;;;-2.00;99.90;;;;;;5070358;28;20187;-56
2023/01/24 06:53:04;;;;;;;51.83;25.50;;;-2.20;99.90;;;;;;5070161;28;20693;-56
2023/01/24 06:55:30;;;;;;;58.40;26.60;;;-2.00;99.90;;;;;;5062326;28;20207;-56
2023/01/24 06:57:57;;;;;;;55.87;25.30;;;-2.00;99.90;;;;;;5067506;28;20195;-56
2023/01/24 07:00:23;;;;;;;46.70;24.83;;;-2.10;99.90;;;;;;5056188;28;20253;-56
2023/01/24 07:02:57;;;;;;;63.87;25.13;;;-2.30;99.90;;;;;;5072517;28;20184;-56
2023/01/24 07:05:23;;;;;;;56.20;24.83;;;-2.20;99.90;;;;;;5074724;28;20173;-56
2023/01/24 07:07:48;;;;;;;63.17;25.67;;;-2.00;99.90;;;;;;5070214;28;20169;-56
2023/01/24 07:10:16;;;;;;;63.37;26.77;;;-1.50;99.90;;;;;;5070338;28;20180;-56
2023/01/24 07:12:42;;;;;;;51.17;25.40;;;-2.30;99.90;;;;;;5074163;28;20263;-57
2023/01/24 07:15:08;;;;;;;62.20;26.90;;;-1.70;99.90;;;;;;5070191;28;20177;-56
2023/01/24 07:17:34;;;;;;;59.70;28.27;;;-2.00;99.90;;;;;;5078122;28;20605;-56
2023/01/24 07:20:00;;;;;;;62.30;27.20;;;-2.10;99.90;;;;;;5087901;28;20211;-57
2023/01/24 07:22:26;;;;;;;64.00;27.53;;;-1.80;99.90;;;;;;5073930;28;20627;-56
2023/01/24 07:24:52;;;;;;;55.83;27.80;;;;;;;;;;5083240;28;20871;-57
2023/01/24 07:27:18;;;;;;;56.80;26.43;;;-1.20;99.90;;;;;;5078162;28;20572;-57
2023/01/24 07:29:43;;;;;;;62.80;28.07;;;-2.00;99.90;;;;;;5073833;28;20261;-57
2023/01/24 07:32:10;;;;;;;59.17;26.73;;;-2.00;99.90;;;;;;5078415;28;20269;-57
2023/01/24 07:34:35;;;;;;;53.57;25.37;;;-1.90;99.90;;;;;;5091604;28;20221;-57
2023/01/24 07:37:01;;;;;;;54.20;27.67;;;-1.70;99.90;;;;;;5076873;28;20214;-57
2023/01/24 07:39:29;;;;;;;52.63;24.77;;;-2.10;99.90;;;;;;5074474;28;20272;-57
2023/01/24 07:41:55;;;;;;;60.17;26.70;;;-2.00;99.90;;;;;;5089597;28;20180;-55
2023/01/24 07:44:20;;;;;;;55.10;26.57;;;-2.00;99.90;;;;;;5078022;28;20188;-55
2023/01/24 07:46:46;;;;;;;59.17;26.93;;;-1.40;99.90;;;;;;5073607;28;20591;-55
2023/01/24 07:49:12;;;;;;;55.63;26.53;;;-1.80;99.90;;;;;;5073378;28;20184;-55
2023/01/24 07:51:37;;;;;;;57.30;26.60;;;-1.70;99.90;;;;;;5065590;28;20212;-55
2023/01/24 07:54:03;;;;;;;52.63;25.90;;;-2.00;99.90;;;;;;5073544;28;20265;-55
2023/01/24 07:56:29;;;;;;;54.97;25.60;;;;;;;;;;5073115;28;20699;-55
2023/01/24 07:58:55;;;;;;;53.73;25.67;;;-1.50;99.90;;;;;;5071302;28;20188;-55
2023/01/24 08:01:23;;;;;;;56.23;26.53;;;-1.80;99.90;;;;;;5079039;28;20251;-55
2023/01/24 08:03:49;;;;;;;55.33;25.77;;;-1.90;99.90;;;;;;5091944;28;20179;-55
2023/01/24 08:06:15;;;;;;;52.13;24.27;;;;;;;;;;5074247;28;20178;-55
2023/01/24 08:08:41;;;;;;;53.67;25.33;;;-2.20;99.90;;;;;;5073201;28;20190;-55
2023/01/24 08:11:10;;;;;;;50.50;24.20;;;-1.80;99.90;;;;;;5073038;28;20723;-56
2023/01/24 08:13:36;;;;;;;56.60;25.90;;;-1.70;99.90;;;;;;5073070;28;20187;-55
2023/01/24 08:16:01;;;;;;;50.30;24.53;;;-1.30;99.90;;;;;;5073125;28;20637;-55
2023/01/24 08:18:27;;;;;;;49.50;25.10;;;-1.40;99.90;;;;;;5073011;28;20270;-55
2023/01/24 08:20:56;;;;;;;51.60;25.93;;;-1.30;99.90;;;;;;5075436;28;20228;-55
2023/01/24 08:23:22;;;;;;;55.70;26.77;;;-1.40;99.90;;;;;;5072853;28;20204;-56
2023/01/24 08:25:48;;;;;;;51.33;25.03;;;-1.10;99.90;;;;;;5072775;28;20205;-55
2023/01/24 08:28:13;;;;;;;63.63;24.63;;;-0.90;99.90;;;;;;5072470;28;20627;-56
2023/01/24 08:30:39;;;;;;;49.77;24.00;;;-0.80;99.90;;;;;;5054749;28;20182;-56
2023/01/24 08:33:06;;;;;;;53.93;24.60;;;0.00;99.90;;;;;;5054719;28;20285;-56
2023/01/24 08:35:32;;;;;;;52.20;24.40;;;-0.30;99.90;;;;;;5072706;28;20180;-56
2023/01/24 08:37:58;;;;;;;50.37;23.27;;;-0.10;99.90;;;;;;5072737;28;20164;-61
2023/01/24 08:40:24;;;;;;;45.13;23.27;;;0.20;99.90;;;;;;5072559;28;20172;-56
2023/01/24 08:42:50;;;;;;;46.27;22.30;;;0.20;99.90;;;;;;5072620;28;20255;-57
2023/01/24 08:45:15;;;;;;;47.23;21.93;;;1.70;99.90;;;;;;5070936;28;20604;-57
2023/01/24 08:47:41;;;;;;;46.73;21.90;;;0.60;99.90;;;;;;5066247;28;20188;-57
2023/01/24 08:50:08;;;;;;;41.40;21.63;;;1.00;99.90;;;;;;5072255;28;20175;-56
2023/01/24 08:52:34;;;;;;;46.87;21.50;;;0.60;99.90;;;;;;5071763;28;20291;-56
2023/01/24 08:54:59;;;;;;;40.93;22.03;;;0.90;99.90;;;;;;5073004;28;20614;-56
2023/01/24 08:57:25;;;;;;;40.53;20.50;;;1.20;99.90;;;;;;5075567;28;20180;-56
2023/01/24 08:59:51;;;;;;;41.07;20.23;;;1.20;99.90;;;;;;5092448;28;20195;-56
2023/01/24 09:02:16;;;;;;;37.93;20.53;;;1.40;99.90;;;;;;5092266;28;20175;-56
2023/01/24 09:04:42;;;;;;;42.33;22.13;;;1.60;99.90;;;;;;5091908;28;20168;-59
2023/01/24 09:07:10;;;;;;;46.07;21.43;;;1.90;99.90;;;;;;5092290;28;20195;-58
2023/01/24 09:09:35;;;;;;;46.90;21.80;;;2.20;99.90;;;;;;5092260;28;20678;-58
2023/01/24 09:12:01;;;;;;;42.47;22.80;;;2.80;99.90;;;;;;5091862;28;20212;-58
2023/01/24 09:14:27;;;;;;;43.03;21.60;;;3.30;99.90;;;;;;5091804;28;20169;-58
2023/01/24 09:16:52;;;;;;;38.67;21.43;;;3.50;99.90;;;;;;5079983;28;20313;-58
2023/01/24 09:19:18;;;;;;;41.27;20.47;;;4.50;99.90;;;;;;5082283;28;20234;-58
2023/01/24 09:21:44;;;;;;;36.13;20.13;;;5.00;99.90;;;;;;5071131;28;20220;-59
2023/01/24 09:24:10;;;;;;;38.53;20.47;;;5.70;99.90;;;;;;5083341;28;20179;-58
2023/01/24 09:26:36;;;;;;;37.30;21.23;;;6.10;99.90;;;;;;5078645;28;20180;-59
2023/01/24 09:29:01;;;;;;;35.80;20.33;;;6.20;99.90;;;;;;5079373;28;20727;-59
2023/01/24 09:31:27;;;;;;;40.67;20.43;;;5.30;99.90;;;;;;5071273;28;20198;-59
2023/01/24 09:33:52;;;;;;;36.93;21.07;;;4.80;99.90;;;;;;5075291;28;20172;-58
2023/01/24 09:36:18;;;;;;;37.77;20.73;;;5.10;99.90;;;;;;5085501;28;20714;-58
2023/01/24 09:38:44;;;;;;;41.10;21.73;;;4.40;99.90;;;;;;5088521;28;20198;-58
2023/01/24 09:41:37;;;;;;;38.83;22.30;;;3.40;99.90;;;;;;5075196;28;20549;-58
2023/01/24 09:44:16;;;;;;;44.13;21.90;;;3.40;99.90;;;;;;5070748;28;20555;-56
2023/01/24 09:46:49;;;;;;;42.10;22.37;;;4.00;99.90;;;;;;5071053;28;20175;-56
2023/01/24 09:49:37;;;;;;;52.57;25.43;;;4.30;99.90;;;;;;5076190;28;20165;-57
2023/01/24 09:52:07;;;;;;;44.70;22.87;;;4.70;99.90;;;;;;5050736;28;20755;-56
2023/01/24 09:54:46;;;;;;;40.80;22.77;;;5.30;99.90;;;;;;5067663;28;20188;-56
2023/01/24 09:57:49;;;;;;;48.50;21.87;;;6.00;99.90;;;;;;5091178;28;20183;-56
2023/01/24 10:00:21;;;;;;;40.37;21.83;;;5.40;99.90;;;;;;5047739;28;20188;-57
2023/01/24 10:02:46;;;;;;;44.63;24.37;;;4.50;99.90;;;;;;5079754;28;20215;-57
2023/01/24 10:05:16;;;;;;;39.80;22.97;;;4.80;99.90;;;;;;5056269;28;20205;-57
2023/01/24 10:07:45;;;;;;;39.10;21.50;;;5.90;99.90;;;;;;5070971;28;20247;-57
2023/01/24 10:10:26;;;;;;;42.90;23.50;;;5.00;99.90;;;;;;5070042;28;20184;-57
2023/01/24 10:13:28;;;;;;;45.97;23.13;;;4.20;99.90;;;;;;5050837;28;20205;-58
2023/01/24 10:16:09;;;;;;;44.53;24.10;;;3.50;99.90;;;;;;5051091;28;20175;-57
2023/01/24 10:18:43;;;;;;;46.47;23.37;;;3.40;99.90;;;;;;5051005;28;20177;-56
2023/01/24 10:21:21;;;;;;;57.07;24.97;;;3.30;99.90;;;;;;5050758;28;20247;-57
2023/01/24 10:23:56;;;;;;;40.97;22.37;;;3.10;99.90;;;;;;5050691;28;20169;-56
2023/01/24 10:26:38;;;;;;;60.53;24.47;;;3.20;99.90;;;;;;5050686;28;20640;-55
2023/01/24 10:29:19;;;;;;;45.33;24.97;;;3.40;99.90;;;;;;5050717;28;20214;-58
2023/01/24 10:32:15;;;;;;;44.97;24.27;;;3.60;99.90;;;;;;5050698;28;20201;-56
2023/01/24 10:34:47;;;;;;;47.70;24.30;;;3.90;99.90;;;;;;5068380;28;20241;-56
2023/01/24 10:37:37;;;;;;;49.30;24.53;;;3.70;99.90;;;;;;5070715;28;20780;-57
2023/01/24 10:40:12;;;;;;;44.30;23.43;;;5.70;99.90;;;;;;5054556;28;20174;-56
2023/01/24 10:42:38;;;;;;;50.10;25.33;;;5.60;99.90;;;;;;5062908;28;20191;-56
2023/01/24 10:45:35;;;;;;;42.93;23.90;;;5.00;99.90;;;;;;5066887;28;20180;-57
2023/01/24 10:48:22;;;;;;;51.30;24.83;;;5.00;99.90;;;;;;5058440;28;20180;-57
2023/01/24 10:50:47;;;;;;;43.30;23.93;;;4.90;99.90;;;;;;5079684;28;20202;-57
2023/01/24 10:53:24;;;;;;;43.83;22.07;;;4.70;99.90;;;;;;5088644;28;20207;-56
2023/01/24 10:55:58;;;;;;;42.67;24.07;;;5.00;99.90;;;;;;5094633;28;20175;-57
2023/01/24 10:58:26;;;;;;;44.07;22.80;;;4.90;99.90;;;;;;5094800;28;20180;-58
2023/01/24 11:00:58;;;;;;;50.00;24.77;;;5.80;99.90;;;;;;5086994;28;20183;-57
2023/01/24 11:03:28;;;;;;;45.03;23.20;;;5.70;99.90;;;;;;5080445;28;20184;-57
2023/01/24 11:05:56;;;;;;;39.40;22.40;;;6.40;99.90;;;;;;5086102;28;20165;-57
2023/01/24 11:08:26;;;;;;;44.00;23.13;;;6.60;99.90;;;;;;5056428;28;20250;-57
2023/01/24 11:10:54;;;;;;;41.00;22.53;;;7.80;99.90;;;;;;5073952;28;20180;-57
2023/01/24 11:13:38;;;;;;;40.27;21.87;;;10.60;99.90;;;;;;5074022;28;20216;-57
2023/01/24 11:16:15;;;;;;;46.33;21.67;;;9.80;99.90;;;;;;5073971;28;20172;-58
2023/01/24 11:19:06;;;;;;;34.90;19.33;;;9.50;99.90;;;;;;5078676;28;20194;-57
2023/01/24 11:21:32;;;;;;;29.07;17.17;;;8.70;99.90;;;;;;5077322;28;20717;-57
2023/01/24 11:24:15;;;;;;;30.70;18.40;;;9.20;99.90;;;;;;5084197;28;20180;-57
2023/01/24 11:27:03;;;;;;;28.27;17.70;;;9.80;99.90;;;;;;5076786;28;20730;-58
2023/01/24 11:29:31;;;;;;;38.87;19.63;;;11.50;99.90;;;;;;5073828;28;20200;-58
2023/01/24 11:32:12;;;;;;;32.03;18.83;;;11.70;99.90;;;;;;5058892;28;20247;-57
2023/01/24 11:34:50;;;;;;;33.37;19.80;;;12.30;99.90;;;;;;5060926;28;20635;-58
2023/01/24 11:37:34;;;;;;;32.92;20.10;;;14.30;99.90;;;;;;5059226;28;20173;-58
2023/01/24 11:40:28;;;;;;;29.38;18.42;;;14.70;99.90;;;;;;5052306;28;20173;-58
2023/01/24 11:43:24;;;;;;;29.30;18.45;;;13.40;99.90;;;;;;5051992;28;20181;-58
2023/01/24 11:46:21;;;;;;;30.05;19.23;;;13.50;99.90;;;;;;5051657;28;20170;-58
2023/01/24 11:49:27;;;;;;;21.60;14.52;;;15.50;99.90;;;;;;5051772;28;20666;-58
2023/01/24 11:52:04;;;;;;;19.13;14.38;;;16.20;99.90;;;;;;5052043;28;20319;-58
2023/01/24 11:54:53;;;;;;;23.75;15.48;;;18.30;99.90;;;;;;5053453;28;20185;-58
2023/01/24 11:57:37;;;;;;;20.65;14.75;;;19.40;99.90;;;;;;5053319;28;20258;-58
2023/01/24 12:00:29;;;;;;;22.73;14.80;;;19.30;99.90;;;;;;5053287;28;20165;-58
2023/01/24 12:03:13;;;;;;;19.83;13.63;;;19.60;99.90;;;;;;5042402;28;20192;-58
2023/01/24 12:06:08;;;;;;;19.33;13.90;;;19.90;99.90;;;;;;5053336;28;20173;-59
2023/01/24 12:09:01;;;;;;;25.20;16.85;;;20.40;95.10;;;;;;5053420;28;20177;-59
2023/01/24 12:11:35;;;;;;;21.30;15.48;;;20.40;92.80;;;;;;5053151;28;20169;-58
2023/01/24 12:14:06;;;;;;;20.00;15.02;;;20.70;96.00;;;;;;5051313;28;20693;-58
2023/01/24 12:17:01;;;;;;;20.45;14.48;;;20.40;91.50;;;;;;5071784;28;20207;-58
2023/01/24 12:19:53;;;;;;;25.13;12.18;;;20.40;88.80;;;;;;5072696;28;20169;-61
2023/01/24 12:22:22;;;;;;;16.70;11.52;;;21.10;75.80;;;;;;5072749;28;20192;-58
2023/01/24 12:24:54;;;;;;;16.33;11.63;;;21.20;77.90;;;;;;5072912;28;20233;-58
2023/01/24 12:27:25;;;;;;;13.35;8.52;;;21.80;73.40;;;;;;5073052;28;20180;-58
2023/01/24 12:29:54;;;;;;;11.38;7.70;;;21.70;56.60;;;;;;5072944;28;20196;-58
2023/01/24 12:32:36;;;;;;;8.90;5.53;;;21.80;61.10;;;;;;5072669;28;20204;-58
2023/01/24 12:35:25;;;;;;;7.75;5.90;;;22.70;54.00;;;;;;5072694;28;20177;-58
2023/01/24 12:38:04;;;;;;;9.20;5.53;;;22.50;47.40;;;;;;5072687;28;20171;-59
2023/01/24 12:40:46;;;;;;;8.15;5.70;;;22.10;37.00;;;;;;5072800;28;20222;-58
2023/01/24 12:43:42;;;;;;;12.98;10.05;;;21.40;31.40;;;;;;5054676;28;20547;-59
2023/01/24 12:46:17;;;;;;;11.05;7.70;;;21.50;24.20;;;;;;5072530;28;20180;-58
2023/01/24 12:49:04;;;;;;;8.85;6.90;;;21.20;23.80;;;;;;5072391;28;20172;-59
2023/01/24 12:51:55;;;;;;;12.50;9.50;;;22.00;24.70;;;;;;5072212;28;20183;-59
2023/01/24 12:54:40;;;;;;;15.52;11.15;;;20.50;19.80;;;;;;5072361;28;20172;-58
2023/01/24 12:57:22;;;;;;;20.52;12.48;;;21.50;18.40;;;;;;5072286;28;20203;-59
2023/01/24 12:59:49;;;;;;;15.30;11.02;;;21.50;12.10;;;;;;5072196;28;20170;-59
2023/01/24 13:02:44;;;;;;;15.18;10.30;;;21.80;14.90;;;;;;5072359;28;20176;-59
2023/01/24 13:05:21;;;;;;;14.60;11.35;;;22.30;13.10;;;;;;5068029;28;20185;-59
2023/01/24 13:07:54;;;;;;;18.23;11.02;;;22.20;8.80;;;;;;5072154;28;20199;-59
2023/01/24 13:10:41;;;;;;;13.80;11.48;;;21.60;5.30;;;;;;5072000;28;20169;-59
2023/01/24 13:13:19;;;;;;;16.38;12.13;;;20.80;1.00;;;;;;5071911;28;20667;-59
2023/01/24 13:16:00;;;;;;;16.10;11.88;;;20.10;3.70;;;;;;5070949;28;20168;-59
2023/01/24 13:18:54;;;;;;;18.75;12.85;;;20.50;1.00;;;;;;5071764;28;20165;-59
2023/01/24 13:21:44;;;;;;;16.48;11.82;;;22.20;3.50;;;;;;5071605;28;20216;-59
2023/01/24 13:24:16;;;;;;;19.05;12.35;;;21.00;1.00;;;;;;5071688;28;20169;-59
2023/01/24 13:26:55;;;;;;;17.60;12.75;;;22.10;1.00;;;;;;5072102;28;20581;-59
2023/01/24 13:29:35;;;;;;;18.70;12.60;;;21.70;1.00;;;;;;5071533;28;20688;-58
2023/01/24 13:32:13;;;;;;;18.33;12.13;;;20.80;1.00;;;;;;5071567;28;20678;-59
2023/01/24 13:34:48;;;;;;;16.77;12.90;;;20.40;1.00;;;;;;5071560;28;20183;-60